createdAt,value
2022-07-26T00:00:16.165Z,100960.58
2022-07-26T00:03:04.102Z,100957.75
2022-07-26T00:05:31.836Z,100956.16
2022-07-26T00:08:10.278Z,100955.33
2022-07-26T00:10:44.506Z,100950.95
2022-07-26T00:13:13.478Z,100953.64
2022-07-26T00:15:41.000Z,100951.98
2022-07-26T00:18:12.093Z,100955.04
2022-07-26T00:20:41.434Z,100949.11
2022-07-26T00:23:09.378Z,100946.71
2022-07-26T00:25:37.543Z,100947.77
2022-07-26T00:28:06.266Z,100946.23
2022-07-26T00:30:34.446Z,100939.51
2022-07-26T00:33:01.936Z,100941.42
2022-07-26T00:35:29.596Z,100934.70
2022-07-26T00:37:58.040Z,100932.40
2022-07-26T00:40:25.574Z,100933.40
2022-07-26T00:42:53.050Z,100929.59
2022-07-26T00:45:21.507Z,100928.21
2022-07-26T00:47:49.083Z,100929.92
2022-07-26T00:50:18.141Z,100928.91
2022-07-26T00:52:48.002Z,100925.30
2022-07-26T00:55:16.235Z,100923.27
2022-07-26T00:57:44.515Z,100922.59
2022-07-26T01:00:17.812Z,100919.58
2022-07-26T01:02:45.486Z,100919.15
2022-07-26T01:05:13.350Z,100915.48
2022-07-26T01:07:40.842Z,100914.75
2022-07-26T01:10:11.885Z,100911.70
2022-07-26T01:12:40.570Z,100912.81
2022-07-26T01:15:10.197Z,100909.23
2022-07-26T01:17:38.531Z,100907.52
2022-07-26T01:20:08.775Z,100905.61
2022-07-26T01:22:36.362Z,100903.69
2022-07-26T01:25:05.175Z,100896.86
2022-07-26T01:27:34.335Z,100893.98
2022-07-26T01:30:01.963Z,100892.64
2022-07-26T01:32:29.374Z,100893.07
2022-07-26T01:34:56.978Z,100895.02
2022-07-26T01:37:24.656Z,100896.23
2022-07-26T01:39:52.383Z,100896.98
2022-07-26T01:42:20.797Z,100897.20
2022-07-26T01:44:48.524Z,100897.41
2022-07-26T01:47:16.017Z,100895.73
2022-07-26T01:49:43.627Z,100896.40
2022-07-26T01:52:11.212Z,100892.83
2022-07-26T01:54:38.760Z,100895.97
2022-07-26T01:57:06.652Z,100894.05
2022-07-26T01:59:34.193Z,100889.85
2022-07-26T02:02:01.795Z,100891.85
2022-07-26T02:04:48.108Z,100884.27
2022-07-26T02:07:15.679Z,100885.36
2022-07-26T02:09:43.305Z,100880.98
2022-07-26T02:12:10.823Z,100878.91
2022-07-26T02:14:38.448Z,100880.06
2022-07-26T02:17:06.202Z,100882.86
2022-07-26T02:19:35.136Z,100885.47
2022-07-26T02:22:02.906Z,100884.73
2022-07-26T02:24:30.535Z,100884.27
2022-07-26T02:26:59.393Z,100891.27
2022-07-26T02:29:27.469Z,100895.84
2022-07-26T02:31:55.568Z,100894.52
2022-07-26T02:34:23.211Z,100891.30
2022-07-26T02:36:51.049Z,100888.95
2022-07-26T02:39:19.033Z,100889.70
2022-07-26T02:41:46.613Z,100888.50
2022-07-26T02:44:14.431Z,100890.35
2022-07-26T02:46:41.925Z,100884.77
2022-07-26T02:49:09.621Z,100884.02
2022-07-26T02:51:37.153Z,100881.94
2022-07-26T02:54:04.916Z,100880.86
2022-07-26T02:56:33.577Z,100885.36
2022-07-26T02:59:01.255Z,100884.73
2022-07-26T03:01:29.974Z,100889.46
2022-07-26T03:03:57.504Z,100886.80
2022-07-26T03:06:24.965Z,100888.65
2022-07-26T03:08:52.641Z,100886.35
2022-07-26T03:11:20.182Z,100886.34
2022-07-26T03:13:47.690Z,100886.63
2022-07-26T03:16:17.949Z,100882.67
2022-07-26T03:18:50.902Z,100881.79
2022-07-26T03:21:18.402Z,100881.42
2022-07-26T03:23:45.871Z,100879.45
2022-07-26T03:26:13.766Z,100881.06
2022-07-26T03:28:42.308Z,100881.02
2022-07-26T03:31:12.235Z,100882.20
2022-07-26T03:33:40.593Z,100883.80
2022-07-26T03:36:11.535Z,100885.50
2022-07-26T03:38:39.381Z,100884.81
2022-07-26T03:41:06.909Z,100886.19
2022-07-26T03:43:36.346Z,100885.58
2022-07-26T03:46:04.182Z,100883.49
2022-07-26T03:48:31.882Z,100882.77
2022-07-26T03:50:59.814Z,100879.42
2022-07-26T03:53:27.639Z,100873.18
2022-07-26T03:56:14.311Z,100873.19
2022-07-26T03:58:43.054Z,100870.04
2022-07-26T04:01:10.628Z,100872.35
2022-07-26T04:03:38.184Z,100867.88
2022-07-26T04:06:06.019Z,100867.86
2022-07-26T04:08:33.566Z,100865.71
2022-07-26T04:11:01.340Z,100867.92
2022-07-26T04:13:28.950Z,100869.58
2022-07-26T04:15:56.583Z,100870.36
2022-07-26T04:18:24.895Z,100872.30
2022-07-26T04:20:52.930Z,100870.05
2022-07-26T04:23:20.603Z,100872.77
2022-07-26T04:25:48.454Z,100872.98
2022-07-26T04:28:18.445Z,100871.27
2022-07-26T04:30:46.370Z,100869.65
2022-07-26T04:33:14.034Z,100869.98
2022-07-26T04:35:41.677Z,100874.05
2022-07-26T04:38:09.316Z,100873.33
2022-07-26T04:40:41.052Z,100874.83
2022-07-26T04:43:10.235Z,100881.34
2022-07-26T04:45:48.258Z,100883.40
2022-07-26T04:48:17.047Z,100882.70
2022-07-26T04:50:45.160Z,100877.18
2022-07-26T04:53:14.787Z,100873.27
2022-07-26T04:55:42.656Z,100867.48
2022-07-26T04:58:10.460Z,100858.61
2022-07-26T05:00:56.846Z,100854.98
2022-07-26T05:03:26.578Z,100859.34
2022-07-26T05:05:54.427Z,100862.48
2022-07-26T05:08:22.329Z,100857.33
2022-07-26T05:10:55.119Z,100856.26
2022-07-26T05:13:30.065Z,100855.70
2022-07-26T05:15:59.582Z,100851.33
2022-07-26T05:18:27.352Z,100847.30
2022-07-26T05:20:57.229Z,100846.56
2022-07-26T05:23:24.893Z,100843.31
2022-07-26T05:25:52.715Z,100840.73
2022-07-26T05:28:20.606Z,100841.45
2022-07-26T05:30:48.544Z,100845.92
2022-07-26T05:33:16.574Z,100845.88
2022-07-26T05:35:44.821Z,100842.69
2022-07-26T05:38:12.635Z,100847.13
2022-07-26T05:40:40.233Z,100841.17
2022-07-26T05:43:08.008Z,100839.28
2022-07-26T05:45:35.955Z,100835.89
2022-07-26T05:48:04.105Z,100836.25
2022-07-26T05:50:32.678Z,100832.11
2022-07-26T05:53:00.261Z,100830.60
2022-07-26T05:55:28.149Z,100830.70
2022-07-26T05:57:55.800Z,100831.07
2022-07-26T06:00:23.649Z,100826.95
2022-07-26T06:02:51.465Z,100824.41
2022-07-26T06:05:21.765Z,100822.36
2022-07-26T06:07:49.330Z,100821.92
2022-07-26T06:10:17.256Z,100823.48
2022-07-26T06:12:44.928Z,100825.97
2022-07-26T06:15:15.957Z,100819.02
2022-07-26T06:17:43.868Z,100813.19
2022-07-26T06:20:11.789Z,100810.23
2022-07-26T06:22:39.500Z,100809.23
2022-07-26T06:25:07.577Z,100805.30
2022-07-26T06:27:35.189Z,100808.17
2022-07-26T06:30:02.860Z,100807.58
2022-07-26T06:32:30.390Z,100802.10
2022-07-26T06:34:57.873Z,100800.90
2022-07-26T06:37:25.418Z,100794.80
2022-07-26T06:39:53.319Z,100800.95
2022-07-26T06:42:21.109Z,100794.20
2022-07-26T06:44:48.776Z,100793.79
2022-07-26T06:47:16.515Z,100789.64
2022-07-26T06:49:44.596Z,100787.52
2022-07-26T06:52:12.348Z,100783.64
2022-07-26T06:54:40.181Z,100783.02
2022-07-26T06:57:07.884Z,100781.02
2022-07-26T06:59:36.022Z,100775.48
2022-07-26T07:02:04.833Z,100766.91
2022-07-26T07:04:34.105Z,100768.36
2022-07-26T07:07:08.217Z,100763.39
2022-07-26T07:09:37.199Z,100772.20
2022-07-26T07:12:09.790Z,100765.36
2022-07-26T07:14:39.529Z,100764.98
2022-07-26T07:17:12.073Z,100762.33
2022-07-26T07:19:41.851Z,100765.08
2022-07-26T07:22:11.405Z,100765.68
2022-07-26T07:24:40.116Z,100757.88
2022-07-26T07:27:10.671Z,100756.38
2022-07-26T07:29:41.409Z,100757.02
2022-07-26T07:32:18.242Z,100755.98
2022-07-26T07:34:49.094Z,100750.30
2022-07-26T07:37:19.928Z,100749.61
2022-07-26T07:39:50.261Z,100751.05
2022-07-26T07:42:19.563Z,100754.95
2022-07-26T07:44:49.698Z,100756.05
2022-07-26T07:47:17.953Z,100753.16
2022-07-26T07:49:45.735Z,100753.97
2022-07-26T07:52:14.598Z,100754.59
2022-07-26T07:54:43.706Z,100751.17
2022-07-26T07:57:11.501Z,100749.57
2022-07-26T07:59:42.470Z,100751.18
2022-07-26T08:02:12.379Z,100749.84
2022-07-26T08:04:40.221Z,100745.17
2022-07-26T08:07:08.242Z,100747.34
2022-07-26T08:09:36.001Z,100742.22
2022-07-26T08:12:11.190Z,100738.81
2022-07-26T08:14:39.635Z,100736.67
2022-07-26T08:17:09.408Z,100736.04
2022-07-26T08:19:42.063Z,100733.54
2022-07-26T08:22:10.706Z,100735.79
2022-07-26T08:24:39.426Z,100734.34
2022-07-26T08:27:07.494Z,100735.86
2022-07-26T08:29:35.526Z,100735.02
2022-07-26T08:32:03.545Z,100733.88
2022-07-26T08:34:31.379Z,100734.52
2022-07-26T08:37:17.555Z,100735.02
2022-07-26T08:39:47.929Z,100734.39
2022-07-26T08:42:23.416Z,100730.88
2022-07-26T08:44:52.317Z,100725.29
2022-07-26T08:47:35.377Z,100724.86
2022-07-26T08:50:09.000Z,100721.87
2022-07-26T08:52:40.985Z,100722.17
2022-07-26T08:55:09.723Z,100720.14
2022-07-26T08:57:37.607Z,100721.33
2022-07-26T09:00:34.887Z,100721.92
2022-07-26T09:03:03.253Z,100723.23
2022-07-26T09:05:35.368Z,100723.79
2022-07-26T09:08:23.790Z,100719.55
2022-07-26T09:10:51.593Z,100720.92
2022-07-26T09:13:19.884Z,100720.90
2022-07-26T09:15:47.731Z,100722.56
2022-07-26T09:18:29.135Z,100720.30
2022-07-26T09:20:57.338Z,100715.27
2022-07-26T09:23:25.214Z,100705.41
2022-07-26T09:25:59.275Z,100707.92
2022-07-26T09:28:30.646Z,100707.61
2022-07-26T09:31:04.884Z,100698.42
2022-07-26T09:33:49.031Z,100693.39
2022-07-26T09:36:17.750Z,100693.64
2022-07-26T09:38:52.059Z,100689.05
2022-07-26T09:41:30.561Z,100687.92
2022-07-26T09:44:04.072Z,100689.69
2022-07-26T09:46:35.509Z,100686.73
2022-07-26T09:49:28.272Z,100688.34
2022-07-26T09:52:21.298Z,100688.83
2022-07-26T09:54:49.338Z,100688.45
2022-07-26T09:57:20.300Z,100685.61
2022-07-26T09:59:48.008Z,100685.95
2022-07-26T10:02:15.721Z,100686.02
2022-07-26T10:04:44.004Z,100685.52
2022-07-26T10:07:11.834Z,100684.71
2022-07-26T10:10:07.188Z,100682.46
2022-07-26T10:12:35.236Z,100676.47
2022-07-26T10:15:03.674Z,100675.02
2022-07-26T10:17:41.475Z,100677.67
2022-07-26T10:20:40.213Z,100672.14
2022-07-26T10:23:56.263Z,100668.41
2022-07-26T10:26:32.654Z,100658.76
2022-07-26T10:29:23.514Z,100658.41
2022-07-26T10:32:03.241Z,100658.74
2022-07-26T10:34:32.133Z,100654.66
2022-07-26T10:37:27.168Z,100658.41
2022-07-26T10:40:22.244Z,100658.35
2022-07-26T10:42:54.773Z,100651.64
2022-07-26T10:45:26.727Z,100653.48
2022-07-26T10:48:18.532Z,100649.63
2022-07-26T10:50:49.893Z,100646.27
2022-07-26T10:53:26.946Z,100643.34
2022-07-26T10:56:01.059Z,100643.88
2022-07-26T10:58:46.973Z,100640.64
2022-07-26T11:01:14.851Z,100636.02
2022-07-26T11:03:43.884Z,100633.95
2022-07-26T11:06:21.634Z,100636.50
2022-07-26T11:08:49.310Z,100631.90
2022-07-26T11:11:29.445Z,100630.14
2022-07-26T11:14:15.639Z,100626.66
2022-07-26T11:16:47.524Z,100626.30
2022-07-26T11:19:22.932Z,100616.17
2022-07-26T11:21:58.235Z,100613.38
2022-07-26T11:24:26.429Z,100612.69
2022-07-26T11:26:54.539Z,100608.45
2022-07-26T11:29:37.359Z,100607.49
2022-07-26T11:32:20.383Z,100612.08
2022-07-26T11:35:04.163Z,100607.23
2022-07-26T11:37:32.066Z,100604.85
2022-07-26T11:39:59.874Z,100597.54
2022-07-26T11:42:27.698Z,100593.55
2022-07-26T11:44:56.280Z,100587.52
2022-07-26T11:47:26.271Z,100585.81
2022-07-26T11:50:21.847Z,100576.84
2022-07-26T11:52:42.901Z,100574.73
2022-07-26T11:55:10.777Z,100567.34
2022-07-26T11:57:38.547Z,100563.42
2022-07-26T12:00:07.632Z,100558.98
2022-07-26T12:02:41.915Z,100554.78
2022-07-26T12:05:19.890Z,100551.33
2022-07-26T12:08:00.017Z,100551.89
2022-07-26T12:10:30.341Z,100548.13
2022-07-26T12:13:15.456Z,100537.90
2022-07-26T12:15:52.178Z,100535.59
2022-07-26T12:18:29.018Z,100532.00
2022-07-26T12:21:04.150Z,100528.00
2022-07-26T12:23:44.828Z,100525.67
2022-07-26T12:26:28.433Z,100524.60
2022-07-26T12:28:57.948Z,100519.30
2022-07-26T12:31:33.813Z,100515.86
2022-07-26T12:34:01.765Z,100513.09
2022-07-26T12:36:33.597Z,100512.93
2022-07-26T12:39:01.645Z,100508.96
2022-07-26T12:41:35.608Z,100506.73
2022-07-26T12:44:05.876Z,100502.91
2022-07-26T12:46:35.941Z,100500.82
2022-07-26T12:49:04.331Z,100492.95
2022-07-26T12:51:32.421Z,100489.19
2022-07-26T12:54:00.321Z,100485.61
2022-07-26T12:56:28.307Z,100484.76
2022-07-26T12:59:00.755Z,100481.61
2022-07-26T13:01:30.015Z,100478.79
2022-07-26T13:03:58.443Z,100467.58
2022-07-26T13:06:26.399Z,100468.40
2022-07-26T13:08:54.420Z,100469.73
2022-07-26T13:11:24.815Z,100462.94
2022-07-26T13:13:52.734Z,100463.71
2022-07-26T13:16:23.850Z,100461.84
2022-07-26T13:18:53.218Z,100464.91
2022-07-26T13:21:22.233Z,100465.77
2022-07-26T13:23:50.312Z,100463.15
2022-07-26T13:26:18.285Z,100463.57
2022-07-26T13:28:49.830Z,100464.39
2022-07-26T13:31:18.180Z,100459.09
2022-07-26T13:33:46.059Z,100456.65
2022-07-26T13:36:16.054Z,100456.92
2022-07-26T13:38:44.560Z,100458.14
2022-07-26T13:41:12.371Z,100456.27
2022-07-26T13:43:40.515Z,100451.23
2022-07-26T13:46:09.051Z,100447.86
2022-07-26T13:48:48.016Z,100442.42
2022-07-26T13:51:56.970Z,100438.30
2022-07-26T13:54:31.916Z,100440.23
2022-07-26T13:57:02.226Z,100442.34
2022-07-26T13:59:30.568Z,100443.33
2022-07-26T14:02:01.767Z,100441.85
2022-07-26T14:04:29.295Z,100437.77
2022-07-26T14:06:57.265Z,100437.70
2022-07-26T14:09:25.236Z,100437.21
2022-07-26T14:11:53.292Z,100429.23
2022-07-26T14:14:23.254Z,100429.25
2022-07-26T14:16:50.901Z,100433.45
2022-07-26T14:19:18.684Z,100429.36
2022-07-26T14:21:58.788Z,100432.36
2022-07-26T14:24:28.865Z,100432.62
2022-07-26T14:26:59.318Z,100432.48
2022-07-26T14:29:28.116Z,100430.91
2022-07-26T14:31:56.129Z,100430.81
2022-07-26T14:34:24.113Z,100427.99
2022-07-26T14:36:51.790Z,100427.52
2022-07-26T14:39:19.125Z,100428.59
2022-07-26T14:41:47.250Z,100424.65
2022-07-26T14:44:14.887Z,100424.20
2022-07-26T14:47:07.135Z,100423.98
2022-07-26T14:49:43.836Z,100420.89
2022-07-26T14:52:11.709Z,100421.23
2022-07-26T14:54:39.501Z,100419.88
2022-07-26T14:57:07.352Z,100415.55
2022-07-26T14:59:35.118Z,100413.31
2022-07-26T15:02:06.074Z,100410.70
2022-07-26T15:04:35.471Z,100405.90
2022-07-26T15:07:03.237Z,100402.05
2022-07-26T15:09:30.917Z,100401.45
2022-07-26T15:11:58.904Z,100401.71
2022-07-26T15:14:26.497Z,100401.58
2022-07-26T15:16:55.458Z,100404.69
2022-07-26T15:19:25.812Z,100401.68
2022-07-26T15:21:55.332Z,100398.65
2022-07-26T15:24:23.629Z,100398.55
2022-07-26T15:26:54.736Z,100398.59
2022-07-26T15:29:22.287Z,100395.27
2022-07-26T15:31:50.131Z,100395.91
2022-07-26T15:34:18.156Z,100391.50
2022-07-26T15:36:45.909Z,100389.89
2022-07-26T15:39:17.618Z,100388.73
2022-07-26T15:41:48.048Z,100385.93
2022-07-26T15:44:17.872Z,100383.92
2022-07-26T15:46:46.820Z,100381.09
2022-07-26T15:49:16.375Z,100384.11
2022-07-26T15:51:44.411Z,100379.70
2022-07-26T15:54:14.311Z,100379.30
2022-07-26T15:56:43.695Z,100380.06
2022-07-26T15:59:11.577Z,100376.90
2022-07-26T16:01:39.278Z,100379.13
2022-07-26T16:04:07.547Z,100383.77
2022-07-26T16:06:35.686Z,100385.09
2022-07-26T16:09:16.576Z,100381.42
2022-07-26T16:11:46.945Z,100382.05
2022-07-26T16:14:15.896Z,100385.57
2022-07-26T16:16:44.707Z,100383.58
2022-07-26T16:19:12.901Z,100383.16
2022-07-26T16:21:41.087Z,100385.16
2022-07-26T16:24:11.980Z,100391.64
2022-07-26T16:26:41.980Z,100388.97
2022-07-26T16:29:10.329Z,100388.23
2022-07-26T16:31:39.251Z,100387.80
2022-07-26T16:34:08.131Z,100385.86
2022-07-26T16:36:36.112Z,100386.57
2022-07-26T16:39:04.423Z,100386.77
2022-07-26T16:41:32.166Z,100386.46
2022-07-26T16:43:59.782Z,100385.70
2022-07-26T16:46:27.650Z,100384.73
2022-07-26T16:48:55.199Z,100383.75
2022-07-26T16:51:22.923Z,100383.38
2022-07-26T16:53:53.477Z,100382.29
2022-07-26T16:56:20.931Z,100387.63
2022-07-26T16:58:48.627Z,100387.96
2022-07-26T17:01:16.708Z,100392.32
2022-07-26T17:03:44.745Z,100392.60
2022-07-26T17:06:12.480Z,100392.50
2022-07-26T17:08:40.754Z,100395.45
2022-07-26T17:11:09.010Z,100396.42
2022-07-26T17:13:36.625Z,100395.86
2022-07-26T17:16:04.701Z,100402.61
2022-07-26T17:18:32.299Z,100406.25
2022-07-26T17:20:59.920Z,100411.36
2022-07-26T17:23:27.686Z,100413.31
2022-07-26T17:25:55.280Z,100411.77
2022-07-26T17:28:22.976Z,100413.55
2022-07-26T17:30:50.570Z,100418.02
2022-07-26T17:33:18.492Z,100418.65
2022-07-26T17:35:45.988Z,100419.02
2022-07-26T17:38:13.612Z,100422.98
2022-07-26T17:40:43.018Z,100428.95
2022-07-26T17:43:10.547Z,100428.92
2022-07-26T17:45:38.033Z,100431.58
2022-07-26T17:48:06.608Z,100433.36
2022-07-26T17:50:36.941Z,100433.48
2022-07-26T17:53:05.013Z,100436.61
2022-07-26T17:55:32.586Z,100435.84
2022-07-26T17:58:00.374Z,100436.65
2022-07-26T18:00:28.788Z,100436.93
2022-07-26T18:02:57.323Z,100442.20
2022-07-26T18:05:31.706Z,100444.56
2022-07-26T18:08:02.180Z,100449.54
2022-07-26T18:10:29.875Z,100456.01
2022-07-26T18:12:57.590Z,100454.23
2022-07-26T18:15:25.169Z,100458.55
2022-07-26T18:17:52.962Z,100459.77
2022-07-26T18:20:24.361Z,100464.77
2022-07-26T18:22:54.486Z,100465.05
2022-07-26T18:25:21.996Z,100468.34
2022-07-26T18:27:49.483Z,100476.39
2022-07-26T18:30:17.200Z,100478.17
2022-07-26T18:32:44.938Z,100484.55
2022-07-26T18:35:14.641Z,100483.13
2022-07-26T18:37:42.143Z,100485.95
2022-07-26T18:40:10.058Z,100486.69
2022-07-26T18:42:37.634Z,100488.41
2022-07-26T18:45:05.927Z,100492.20
2022-07-26T18:47:33.462Z,100494.65
2022-07-26T18:50:02.438Z,100494.97
2022-07-26T18:52:32.593Z,100493.16
2022-07-26T18:55:09.480Z,100492.31
2022-07-26T18:57:37.775Z,100494.14
2022-07-26T19:00:09.702Z,100489.52
2022-07-26T19:02:37.288Z,100487.45
2022-07-26T19:05:06.051Z,100486.31
2022-07-26T19:07:37.125Z,100486.54
2022-07-26T19:10:10.042Z,100488.67
2022-07-26T19:12:48.604Z,100485.32
2022-07-26T19:15:16.720Z,100488.38
2022-07-26T19:17:44.583Z,100488.23
2022-07-26T19:20:15.739Z,100488.99
2022-07-26T19:22:44.273Z,100494.71
2022-07-26T19:25:18.077Z,100496.66
2022-07-26T19:27:51.921Z,100495.31
2022-07-26T19:30:20.978Z,100495.77
2022-07-26T19:32:51.216Z,100492.95
2022-07-26T19:35:20.962Z,100492.20
2022-07-26T19:37:50.929Z,100492.67
2022-07-26T19:40:25.204Z,100491.70
2022-07-26T19:43:14.636Z,100493.24
2022-07-26T19:45:59.573Z,100491.06
2022-07-26T19:48:28.205Z,100489.10
2022-07-26T19:51:24.190Z,100489.44
2022-07-26T19:53:56.705Z,100486.44
2022-07-26T19:56:24.279Z,100486.83
2022-07-26T19:58:51.987Z,100487.18
2022-07-26T20:01:20.985Z,100488.27
2022-07-26T20:03:49.737Z,100487.25
2022-07-26T20:06:17.673Z,100490.14
2022-07-26T20:08:46.954Z,100494.86
2022-07-26T20:11:15.212Z,100492.30
2022-07-26T20:13:47.229Z,100490.63
2022-07-26T20:16:15.210Z,100493.11
2022-07-26T20:18:42.867Z,100493.75
2022-07-26T20:21:13.038Z,100490.55
2022-07-26T20:23:40.229Z,100493.11
2022-07-26T20:26:07.819Z,100495.42
2022-07-26T20:28:35.563Z,100499.27
2022-07-26T20:31:03.300Z,100503.98
2022-07-26T20:33:31.013Z,100507.33
2022-07-26T20:35:58.639Z,100513.23
2022-07-26T20:38:26.547Z,100512.42
2022-07-26T20:40:53.896Z,100512.36
2022-07-26T20:43:22.074Z,100513.79
2022-07-26T20:45:50.037Z,100516.63
2022-07-26T20:48:18.709Z,100516.91
2022-07-26T20:50:46.215Z,100515.89
2022-07-26T20:53:13.760Z,100519.02
2022-07-26T20:55:41.665Z,100522.30
2022-07-26T20:58:09.299Z,100526.50
2022-07-26T21:00:36.846Z,100528.39
2022-07-26T21:03:04.544Z,100530.77
2022-07-26T21:05:32.822Z,100531.13
2022-07-26T21:08:00.613Z,100530.81
2022-07-26T21:10:29.144Z,100527.73
2022-07-26T21:13:05.829Z,100529.73
2022-07-26T21:15:33.392Z,100533.36
2022-07-26T21:18:00.930Z,100536.48
2022-07-26T21:20:28.528Z,100533.83
2022-07-26T21:23:08.031Z,100532.29
2022-07-26T21:25:40.782Z,100527.83
2022-07-26T21:28:08.296Z,100528.67
2022-07-26T21:30:35.748Z,100524.33
2022-07-26T21:33:03.839Z,100525.58
2022-07-26T21:35:33.125Z,100523.67
2022-07-26T21:38:00.719Z,100525.73
2022-07-26T21:40:28.375Z,100522.39
2022-07-26T21:42:55.719Z,100518.67
2022-07-26T21:45:23.390Z,100520.06
2022-07-26T21:47:50.937Z,100516.01
2022-07-26T21:50:18.570Z,100514.30
2022-07-26T21:52:46.142Z,100510.29
2022-07-26T21:55:15.488Z,100514.14
2022-07-26T21:57:45.454Z,100516.85
2022-07-26T22:00:15.394Z,100517.44
2022-07-26T22:02:42.991Z,100517.93
2022-07-26T22:05:29.119Z,100517.13
2022-07-26T22:07:56.594Z,100520.95
2022-07-26T22:10:24.259Z,100522.52
2022-07-26T22:12:51.701Z,100525.14
2022-07-26T22:15:19.555Z,100531.63
2022-07-26T22:17:47.078Z,100529.20
2022-07-26T22:20:16.061Z,100532.58
2022-07-26T22:22:43.687Z,100529.69
2022-07-26T22:25:11.413Z,100531.15
2022-07-26T22:27:39.056Z,100531.57
2022-07-26T22:30:07.631Z,100534.27
2022-07-26T22:32:35.244Z,100532.10
2022-07-26T22:35:02.790Z,100530.73
2022-07-26T22:37:30.158Z,100527.93
2022-07-26T22:39:57.561Z,100528.12
2022-07-26T22:42:25.220Z,100525.95
2022-07-26T22:44:52.685Z,100526.55
2022-07-26T22:47:20.294Z,100526.42
2022-07-26T22:49:47.818Z,100531.52
2022-07-26T22:52:15.254Z,100531.17
2022-07-26T22:54:44.123Z,100530.64
2022-07-26T22:57:11.508Z,100532.85
2022-07-26T22:59:39.187Z,100534.42
2022-07-26T23:02:06.525Z,100534.66
2022-07-26T23:04:34.010Z,100530.29
2022-07-26T23:07:01.718Z,100532.92
2022-07-26T23:09:29.448Z,100534.61
2022-07-26T23:11:56.974Z,100532.73
2022-07-26T23:14:24.496Z,100533.81
2022-07-26T23:16:52.180Z,100534.23
2022-07-26T23:19:19.854Z,100531.65
2022-07-26T23:21:47.334Z,100528.71
2022-07-26T23:24:14.870Z,100526.42
2022-07-26T23:26:42.922Z,100522.45
2022-07-26T23:29:10.654Z,100524.48
2022-07-26T23:31:38.173Z,100521.34
2022-07-26T23:34:05.793Z,100519.00
2022-07-26T23:36:33.738Z,100514.30
2022-07-26T23:39:01.334Z,100511.55
2022-07-26T23:41:28.758Z,100511.30
2022-07-26T23:43:56.476Z,100510.65
2022-07-26T23:46:24.529Z,100509.05
2022-07-26T23:48:52.439Z,100507.98
2022-07-26T23:51:20.719Z,100508.02
2022-07-26T23:53:48.622Z,100508.08
2022-07-26T23:56:16.694Z,100506.11
2022-07-26T23:58:44.695Z,100506.36
